Time;durP1;ratioP1;P1;durP2;ratioP2;P2;SDS_P1;SDS_P2;PMS_P1;PMS_P2;Temp;Humidity;BMP_temperature;BMP_pressure;BME280_temperature;BME280_humidity;BME280_pressure;Samples;Min_cycle;Max_cycle;Signal;HPM_P1;HPM_P2
2023/03/05 00:00:41;;;;;;;39.10;14.00;;;;;;;2.41;86.47;99075.13;4939921;28;20236;-60
2023/03/05 00:03:07;;;;;;;33.27;14.43;;;;;;;2.37;86.52;99063.34;4942574;28;20644;-60
2023/03/05 00:05:34;;;;;;;33.20;13.93;;;;;;;2.36;86.55;99061.69;4938846;28;20230;-60
2023/03/05 00:08:01;;;;;;;38.50;13.20;;;;;;;2.37;87.02;99060.78;4940730;28;20234;-60
2023/03/05 00:10:27;;;;;;;36.57;14.97;;;;;;;2.37;87.93;99068.50;4942364;28;20231;-59
2023/03/05 00:12:54;;;;;;;39.97;13.80;;;;;;;2.32;88.05;99061.03;4939322;28;20785;-60
2023/03/05 00:15:22;;;;;;;35.00;14.20;;;;;;;2.32;87.53;99057.63;4941891;28;20230;-60
2023/03/05 00:17:48;;;;;;;43.63;15.10;;;;;;;2.32;86.64;99065.34;4938897;28;20230;-60
2023/03/05 00:20:15;;;;;;;37.17;13.97;;;;;;;2.35;86.38;99066.03;4942487;28;21198;-60
2023/03/05 00:22:42;;;;;;;36.03;12.77;;;;;;;2.35;86.20;99066.03;4937943;28;20231;-59
2023/03/05 00:25:09;;;;;;;33.13;14.43;;;;;;;2.38;86.84;99056.47;4939940;28;20292;-60
2023/03/05 00:27:35;;;;;;;31.13;12.97;;;;;;;2.38;88.24;99062.44;4939046;28;20226;-61
2023/03/05 00:30:02;;;;;;;35.43;15.43;;;;;;;2.41;87.61;99053.72;4940526;28;20290;-59
2023/03/05 00:32:30;;;;;;;34.40;12.93;;;;;;;2.43;87.55;99057.03;4939709;28;20714;-59
2023/03/05 00:34:57;;;;;;;34.27;13.07;;;;;;;2.45;88.07;99057.78;4939921;28;20749;-60
2023/03/05 00:37:23;;;;;;;33.13;12.97;;;;;;;2.41;88.50;99051.13;4938768;28;20214;-59
2023/03/05 00:39:50;;;;;;;35.07;13.60;;;;;;;2.43;89.32;99046.72;4939531;28;20237;-60
2023/03/05 00:42:16;;;;;;;33.50;14.33;;;;;;;2.47;88.62;99048.19;4941069;28;20227;-59
2023/03/05 00:44:43;;;;;;;36.10;14.03;;;;;;;2.51;88.54;99054.84;4936829;28;20226;-60
2023/03/05 00:47:10;;;;;;;35.67;14.00;;;;;;;2.50;87.14;99046.25;4941562;28;20316;-59
2023/03/05 00:49:38;;;;;;;34.63;12.37;;;;;;;2.51;86.57;99044.53;4949447;28;20256;-60
2023/03/05 00:52:05;;;;;;;34.93;12.63;;;;;;;2.50;85.93;99038.53;4939796;28;20240;-60
2023/03/05 00:54:31;;;;;;;29.63;12.13;;;;;;;2.51;86.41;99034.22;4943052;28;20578;-59
2023/03/05 00:56:58;;;;;;;32.57;11.93;;;;;;;2.51;86.50;99034.22;4937057;28;20234;-59
2023/03/05 00:59:24;;;;;;;31.90;12.47;;;;;;;2.50;85.52;99035.94;4939524;28;20226;-59
2023/03/05 01:01:51;;;;;;;33.57;13.33;;;;;;;2.49;85.44;99024.00;4936946;28;20314;-58
2023/03/05 01:04:18;;;;;;;28.73;12.30;;;;;;;2.50;85.57;99023.06;4944723;28;20246;-60
2023/03/05 01:06:45;;;;;;;35.70;13.03;;;;;;;2.55;86.25;99024.56;4945458;28;20238;-60
2023/03/05 01:09:13;;;;;;;33.40;13.97;;;;;;;2.54;85.85;99018.59;4948032;28;20252;-59
2023/03/05 01:11:40;;;;;;;30.57;12.07;;;;;;;2.55;84.97;99019.41;4942132;28;20242;-60
2023/03/05 01:14:06;;;;;;;32.57;12.70;;;;;;;2.57;85.29;99013.25;4948438;28;20242;-58
2023/03/05 01:16:33;;;;;;;32.00;12.23;;;;;;;2.56;84.79;99010.75;4943925;28;20332;-60
2023/03/05 01:18:59;;;;;;;28.60;11.10;;;;;;;2.56;85.60;99010.75;4945319;28;20299;-59
2023/03/05 01:21:26;;;;;;;32.90;13.33;;;;;;;2.59;85.97;99005.41;4948201;28;20242;-60
2023/03/05 01:23:54;;;;;;;36.40;12.77;;;;;;;2.61;85.51;99001.00;4944072;28;21290;-59
2023/03/05 01:26:21;;;;;;;29.83;12.17;;;;;;;2.63;83.54;99002.59;4957736;28;20224;-59
2023/03/05 01:28:48;;;;;;;34.97;12.43;;;;;;;2.61;83.79;98999.25;4940846;28;20250;-60
2023/03/05 01:31:14;;;;;;;28.83;11.40;;;;;;;2.66;84.22;98988.66;4947745;28;20238;-59
2023/03/05 01:33:41;;;;;;;28.47;11.67;;;;;;;2.64;84.95;98993.94;4944868;28;20261;-60
2023/03/05 01:36:12;;;;;;;28.87;11.70;;;;;;;2.68;84.92;98993.72;4947916;28;20293;-60
2023/03/05 01:38:38;;;;;;;28.33;11.27;;;;;;;2.66;85.19;98992.06;4944266;28;20217;-60
2023/03/05 01:41:07;;;;;;;35.27;13.23;;;;;;;2.62;84.96;98985.47;4957154;28;20245;-60
2023/03/05 01:43:33;;;;;;;29.67;11.60;;;;;;;2.65;85.89;98981.84;4941601;28;20716;-60
2023/03/05 01:46:34;;;;;;;30.23;11.73;;;;;;;2.68;86.07;98980.81;4943971;28;20238;-59
2023/03/05 01:49:15;;;;;;;34.70;11.60;;;;;;;2.66;85.73;98975.78;4959924;28;20305;-59
2023/03/05 01:51:47;;;;;;;29.83;11.90;;;;;;;2.66;86.16;98975.78;4944166;28;20290;-59
2023/03/05 01:54:17;;;;;;;24.30;10.33;;;;;;;2.62;87.16;98977.72;4946865;28;20311;-60
2023/03/05 01:56:46;;;;;;;35.40;11.73;;;;;;;2.64;86.94;98981.03;4943851;28;20305;-59
2023/03/05 01:59:13;;;;;;;25.40;10.90;;;;;;;2.63;87.13;98974.22;4960189;28;20265;-59
2023/03/05 02:01:44;;;;;;;29.63;11.70;;;;;;;2.63;88.89;98973.38;4943422;28;20230;-60
2023/03/05 02:04:14;;;;;;;27.53;11.67;;;;;;;2.63;88.23;98969.06;4943847;28;20297;-60
2023/03/05 02:06:42;;;;;;;32.57;12.57;;;;;;;2.63;87.96;98963.06;4956066;28;20226;-60
2023/03/05 02:09:09;;;;;;;34.63;12.20;;;;;;;2.60;87.25;98966.69;4946443;28;20230;-58
2023/03/05 02:11:36;;;;;;;30.73;11.27;;;;;;;2.61;88.60;98962.34;4943852;28;20226;-60
2023/03/05 02:14:05;;;;;;;27.47;10.63;;;;;;;2.60;88.75;98950.38;4952209;28;20296;-60
2023/03/05 02:16:35;;;;;;;25.73;10.63;;;;;;;2.58;89.32;98947.91;4952334;28;20230;-59
2023/03/05 02:19:03;;;;;;;26.27;11.07;;;;;;;2.59;89.74;98946.97;4946192;28;20293;-60
2023/03/05 02:21:37;;;;;;;34.47;12.30;;;;;;;2.63;88.69;98942.44;4950038;28;20324;-60
2023/03/05 02:24:04;;;;;;;28.67;11.53;;;;;;;2.59;88.56;98944.41;4948723;28;20297;-60
2023/03/05 02:26:31;;;;;;;24.27;10.67;;;;;;;2.59;89.29;98941.81;4951823;28;20306;-60
2023/03/05 02:29:02;;;;;;;35.83;11.90;;;;;;;2.58;89.64;98941.91;4947287;28;20685;-59
2023/03/05 02:31:29;;;;;;;27.00;9.83;;;;;;;2.60;89.10;98940.91;4948466;28;20238;-58
2023/03/05 02:33:56;;;;;;;26.23;9.83;;;;;;;2.60;89.45;98935.75;4945547;28;20697;-60
2023/03/05 02:36:25;;;;;;;30.10;12.23;;;;;;;2.60;89.19;98940.91;4946557;28;20222;-60
2023/03/05 02:38:55;;;;;;;27.50;10.53;;;;;;;2.64;89.69;98939.81;4958967;28;23524;-59
2023/03/05 02:41:23;;;;;;;24.90;10.67;;;;;;;2.60;90.11;98935.75;4942509;28;20231;-59
2023/03/05 02:43:49;;;;;;;26.17;10.50;;;;;;;2.56;90.18;98942.00;4944270;28;20230;-60
2023/03/05 02:46:16;;;;;;;25.03;10.80;;;;;;;2.59;89.94;98935.81;4961683;28;20241;-61
2023/03/05 02:48:43;;;;;;;20.57;9.60;;;;;;;2.61;90.30;98934.84;4961036;28;20720;-61
2023/03/05 02:51:12;;;;;;;29.43;10.37;;;;;;;2.63;90.29;98924.41;4963981;28;20230;-63
2023/03/05 02:53:39;;;;;;;24.77;9.67;;;;;;;2.65;90.71;98922.56;4944892;28;20230;-60
2023/03/05 02:56:07;;;;;;;23.33;9.27;;;;;;;2.61;91.13;98931.41;4948120;28;20238;-60
2023/03/05 02:58:35;;;;;;;25.40;9.83;;;;;;;2.61;91.47;98918.53;4948199;28;20224;-60
2023/03/05 03:01:01;;;;;;;26.10;10.43;;;;;;;2.56;91.52;98917.97;4962014;28;20242;-60
2023/03/05 03:03:28;;;;;;;26.57;9.90;;;;;;;2.56;91.32;98920.53;4963678;28;20222;-60
2023/03/05 03:05:55;;;;;;;28.93;10.63;;;;;;;2.57;90.17;98917.91;4948189;28;20668;-60
2023/03/05 03:08:21;;;;;;;29.20;11.03;;;;;;;2.62;89.90;98909.88;4964253;28;20222;-61
2023/03/05 03:10:48;;;;;;;27.03;10.73;;;;;;;2.60;90.21;98911.72;4948652;28;20234;-60
2023/03/05 03:13:16;;;;;;;28.40;10.17;;;;;;;2.58;90.68;98910.97;4949698;28;20325;-60
2023/03/05 03:15:42;;;;;;;25.17;10.23;;;;;;;2.60;90.62;98914.28;4948587;28;20230;-60
2023/03/05 03:18:09;;;;;;;29.87;10.13;;;;;;;2.63;90.47;98911.53;4950616;28;20234;-60
2023/03/05 03:20:38;;;;;;;30.03;10.77;;;;;;;2.62;90.13;98905.56;4949171;28;20276;-59
2023/03/05 03:23:06;;;;;;;27.63;10.53;;;;;;;2.64;90.08;98905.44;4949883;28;20702;-59
2023/03/05 03:25:33;;;;;;;32.97;10.83;;;;;;;2.64;89.03;98902.88;4950070;28;20226;-60
2023/03/05 03:27:59;;;;;;;27.47;9.70;;;;;;;2.65;89.00;98905.34;4946132;28;20230;-60
2023/03/05 03:30:27;;;;;;;31.97;10.60;;;;;;;2.63;88.68;98901.22;4949111;28;20229;-60
2023/03/05 03:32:54;;;;;;;27.47;10.33;;;;;;;2.63;88.66;98896.91;4950679;28;20326;-60
2023/03/05 03:35:20;;;;;;;29.77;11.33;;;;;;;2.63;87.40;98894.31;4948080;28;20230;-59
2023/03/05 03:37:47;;;;;;;28.27;10.67;;;;;;;2.66;88.15;98885.56;4946582;28;20242;-59
2023/03/05 03:40:14;;;;;;;29.23;10.70;;;;;;;2.68;85.72;98886.31;4949174;28;20240;-60
2023/03/05 03:42:40;;;;;;;25.10;9.93;;;;;;;2.72;85.76;98890.34;4945633;28;20227;-60
2023/03/05 03:45:08;;;;;;;23.17;10.07;;;;;;;2.71;87.26;98883.53;4947517;28;20956;-60
2023/03/05 03:47:36;;;;;;;28.43;10.60;;;;;;;2.74;87.53;98883.34;4945955;28;20234;-59
2023/03/05 03:50:04;;;;;;;25.33;9.87;;;;;;;2.78;87.62;98884.81;4948454;28;20292;-59
2023/03/05 03:52:30;;;;;;;28.27;10.00;;;;;;;2.78;86.80;98882.25;4948416;28;20860;-59
2023/03/05 03:55:00;;;;;;;26.60;9.70;;;;;;;2.74;87.99;98885.94;4945376;28;20293;-59
2023/03/05 03:57:28;;;;;;;30.57;11.07;;;;;;;2.73;87.60;98878.28;4947756;28;20426;-59
2023/03/05 03:59:55;;;;;;;23.40;9.50;;;;;;;2.73;87.37;98871.38;4946086;28;20686;-59
2023/03/05 04:02:22;;;;;;;30.33;10.23;;;;;;;2.74;88.27;98870.47;4949470;28;20825;-60
2023/03/05 04:04:51;;;;;;;29.67;9.60;;;;;;;2.72;89.32;98869.72;4947075;28;20233;-59
2023/03/05 04:07:17;;;;;;;27.27;10.50;;;;;;;2.72;88.96;98868.88;4962689;28;20235;-60
2023/03/05 04:09:44;;;;;;;23.87;8.57;;;;;;;2.71;88.67;98869.81;4947450;28;20906;-60
2023/03/05 04:12:16;;;;;;;23.43;9.77;;;;;;;2.68;88.16;98867.41;4950661;28;20322;-59
2023/03/05 04:14:44;;;;;;;33.10;10.20;;;;;;;2.68;88.15;98865.69;4944918;28;20277;-59
2023/03/05 04:17:11;;;;;;;29.07;8.93;;;;;;;2.64;88.74;98865.06;4947888;28;20250;-60
2023/03/05 04:19:38;;;;;;;26.43;9.27;;;;;;;2.64;88.03;98864.22;4947031;28;20332;-60
2023/03/05 04:22:06;;;;;;;27.87;10.03;;;;;;;2.63;89.53;98859.97;4948767;28;20239;-59
2023/03/05 04:24:32;;;;;;;22.63;10.00;;;;;;;2.63;89.49;98854.81;4947003;28;20745;-59
2023/03/05 04:26:59;;;;;;;29.53;10.63;;;;;;;2.62;89.54;98864.31;4941690;28;20599;-60
2023/03/05 04:29:25;;;;;;;24.13;9.00;;;;;;;2.70;89.22;98863.84;4938613;28;20296;-59
2023/03/05 04:31:52;;;;;;;23.60;9.90;;;;;;;2.61;90.21;98859.25;5163223;23;20277;-57
2023/03/05 04:34:19;;;;;;;27.87;11.00;;;;;;;2.62;90.06;98846.28;4965230;28;20234;-53
2023/03/05 04:36:45;;;;;;;24.33;10.10;;;;;;;2.59;90.69;98849.03;4978528;28;20304;-55
2023/03/05 04:39:13;;;;;;;26.53;10.30;;;;;;;2.59;90.11;98849.03;4964846;28;20775;-54
2023/03/05 04:41:40;;;;;;;29.40;11.40;;;;;;;2.60;89.19;98842.97;4961582;28;20222;-53
2023/03/05 04:44:07;;;;;;;35.53;11.33;;;;;;;2.62;88.29;98846.28;4966202;28;20300;-56
2023/03/05 04:46:33;;;;;;;23.80;9.43;;;;;;;2.62;89.29;98837.72;4958407;28;20274;-57
2023/03/05 04:49:03;;;;;;;25.57;9.73;;;;;;;2.63;89.23;98836.78;4960710;28;20241;-52
2023/03/05 04:51:29;;;;;;;28.47;11.60;;;;;;;2.62;89.05;98835.13;4961588;28;20241;-53
2023/03/05 04:53:56;;;;;;;29.87;10.37;;;;;;;2.60;90.27;98834.41;4946182;28;20234;-56
2023/03/05 04:56:24;;;;;;;34.13;10.77;;;;;;;2.58;90.04;98838.81;4947256;28;20242;-55
2023/03/05 04:58:50;;;;;;;27.07;10.63;;;;;;;2.57;89.46;98839.75;4949636;28;20634;-56
2023/03/05 05:01:17;;;;;;;28.47;10.40;;;;;;;2.57;90.00;98837.16;4965815;28;20526;-53
2023/03/05 05:03:44;;;;;;;27.33;10.23;;;;;;;2.51;89.33;98836.63;4959437;28;20313;-53
2023/03/05 05:06:11;;;;;;;29.07;10.87;;;;;;;2.50;88.93;98834.97;4960984;28;20237;-54
2023/03/05 05:08:38;;;;;;;36.17;11.97;;;;;;;2.51;88.01;98833.22;4963027;28;20246;-55
2023/03/05 05:11:06;;;;;;;29.30;10.10;;;;;;;2.51;88.65;98833.22;4965107;28;20736;-55
2023/03/05 05:13:34;;;;;;;26.97;10.43;;;;;;;2.49;88.87;98825.56;4955658;28;20242;-54
2023/03/05 05:16:01;;;;;;;30.27;10.93;;;;;;;2.50;89.26;98822.06;4943848;28;20246;-52
2023/03/05 05:18:28;;;;;;;25.30;10.00;;;;;;;2.45;89.95;98818.16;4945609;28;20226;-52
2023/03/05 05:20:54;;;;;;;25.53;10.43;;;;;;;2.43;89.77;98823.38;4944465;28;20234;-52
2023/03/05 05:23:21;;;;;;;31.55;13.20;;;;;;;2.43;90.41;98825.94;4943561;28;20998;-53
2023/03/05 05:25:55;;;;;;;32.00;11.87;;;;;;;2.44;90.40;98826.78;4961664;28;20246;-53
2023/03/05 05:28:22;;;;;;;31.50;11.23;;;;;;;2.43;89.77;98822.56;4964760;28;20236;-52
2023/03/05 05:30:50;;;;;;;26.97;10.83;;;;;;;2.43;89.66;98822.56;4963083;28;20700;-54
2023/03/05 05:33:16;;;;;;;26.07;11.60;;;;;;;2.36;90.06;98822.94;4965556;28;20736;-52
2023/03/05 05:35:43;;;;;;;23.00;9.67;;;;;;;2.34;90.38;98819.63;4963116;28;20284;-53
2023/03/05 05:38:10;;;;;;;27.63;11.57;;;;;;;2.31;91.49;98814.66;4965910;28;20221;-55
2023/03/05 05:40:36;;;;;;;25.60;10.57;;;;;;;2.28;91.31;98817.41;4962304;28;20232;-51
2023/03/05 05:43:03;;;;;;;31.30;11.33;;;;;;;2.26;91.85;98821.00;4964873;28;20241;-52
2023/03/05 05:45:29;;;;;;;27.97;12.33;;;;;;;2.25;92.48;98827.06;4965389;28;20293;-52
2023/03/05 05:47:57;;;;;;;30.73;11.80;;;;;;;2.24;92.30;98820.25;4962746;28;20296;-54
2023/03/05 05:50:24;;;;;;;31.07;12.20;;;;;;;2.24;93.39;98820.25;4965872;28;20295;-53
2023/03/05 05:52:51;;;;;;;29.43;11.70;;;;;;;2.24;92.12;98830.56;4966133;28;20233;-53
2023/03/05 05:55:18;;;;;;;33.50;12.33;;;;;;;2.27;91.19;98820.06;4968849;28;20269;-56
2023/03/05 05:57:44;;;;;;;32.43;12.60;;;;;;;2.29;91.64;98820.81;4959989;28;20289;-54
2023/03/05 06:00:13;;;;;;;27.23;11.97;;;;;;;2.29;91.29;98820.81;4966400;28;20650;-56
2023/03/05 06:02:42;;;;;;;32.33;12.30;;;;;;;2.28;92.05;98820.00;4952025;28;20678;-53
2023/03/05 06:05:14;;;;;;;23.73;10.30;;;;;;;2.27;92.83;98825.22;4959227;28;20642;-54
2023/03/05 06:07:44;;;;;;;30.50;12.07;;;;;;;2.22;93.30;98826.34;4947215;28;20229;-54
2023/03/05 06:10:11;;;;;;;30.30;11.50;;;;;;;2.20;93.11;98828.16;4947201;28;20586;-52
2023/03/05 06:12:38;;;;;;;29.87;12.97;;;;;;;2.20;93.45;98825.59;4963028;28;20241;-54
2023/03/05 06:15:06;;;;;;;38.43;14.63;;;;;;;2.19;92.92;98828.28;4960584;28;20229;-55
2023/03/05 06:17:32;;;;;;;34.87;14.37;;;;;;;2.19;93.02;98821.38;4952670;28;20297;-54
2023/03/05 06:19:59;;;;;;;36.23;15.30;;;;;;;2.21;93.26;98819.53;4950355;28;20237;-53
2023/03/05 06:22:27;;;;;;;41.37;15.17;;;;;;;2.18;93.90;98819.72;4968556;28;20229;-53
2023/03/05 06:24:54;;;;;;;38.03;15.37;;;;;;;2.17;94.13;98820.63;4956232;28;20246;-54
2023/03/05 06:27:21;;;;;;;43.17;16.27;;;;;;;2.20;93.92;98822.22;4948636;28;20285;-53
2023/03/05 06:29:47;;;;;;;37.93;14.33;;;;;;;2.16;93.70;98815.59;4964139;28;20241;-54
2023/03/05 06:32:14;;;;;;;32.60;12.10;;;;;;;2.18;93.99;98809.41;4967159;28;20230;-55
2023/03/05 06:34:40;;;;;;;37.40;13.60;;;;;;;2.20;94.17;98814.47;4965271;28;20220;-53
2023/03/05 06:37:07;;;;;;;27.47;12.60;;;;;;;2.20;95.15;98807.56;4968414;28;20236;-56
2023/03/05 06:39:35;;;;;;;29.13;12.57;;;;;;;2.25;95.19;98812.47;4966347;28;20229;-57
2023/03/05 06:42:01;;;;;;;29.77;12.03;;;;;;;2.28;94.53;98809.69;4965329;28;20238;-53
2023/03/05 06:44:28;;;;;;;30.93;13.67;;;;;;;2.26;94.67;98808.13;4965495;28;20307;-54
2023/03/05 06:46:54;;;;;;;30.97;11.77;;;;;;;2.29;94.35;98806.19;4948391;28;20246;-53
2023/03/05 06:49:21;;;;;;;25.90;10.10;;;;;;;2.38;94.39;98806.56;4961631;28;20230;-53
2023/03/05 06:51:48;;;;;;;31.33;13.00;;;;;;;2.41;93.61;98807.19;4950385;28;20475;-52
2023/03/05 06:54:16;;;;;;;35.13;13.27;;;;;;;2.44;93.29;98809.56;4953682;28;20226;-56
2023/03/05 06:56:46;;;;;;;30.97;13.13;;;;;;;2.49;93.63;98802.38;4964068;28;20239;-56
2023/03/05 06:59:14;;;;;;;31.80;13.47;;;;;;;2.56;93.01;98802.00;4961769;28;20230;-54
2023/03/05 07:01:41;;;;;;;26.70;11.37;;;;;;;2.68;92.14;98805.56;4964862;28;20288;-55
2023/03/05 07:04:07;;;;;;;30.20;12.10;;;;;;;2.68;92.84;98806.41;4967083;28;20709;-56
2023/03/05 07:06:37;;;;;;;31.33;12.73;;;;;;;2.71;92.41;98803.63;4957972;28;20226;-54
2023/03/05 07:09:05;;;;;;;35.50;12.73;;;;;;;2.75;91.72;98806.81;4960052;28;20232;-54
2023/03/05 07:11:32;;;;;;;34.97;12.17;;;;;;;2.76;90.79;98805.91;4967747;28;20277;-54
2023/03/05 07:14:01;;;;;;;29.47;11.47;;;;;;;2.83;90.69;98811.50;4955458;28;20728;-52
2023/03/05 07:16:29;;;;;;;29.47;12.10;;;;;;;2.90;88.74;98812.78;4967795;28;20248;-52
2023/03/05 07:18:57;;;;;;;27.17;11.27;;;;;;;2.94;88.62;98809.09;4965055;28;20234;-56
2023/03/05 07:21:25;;;;;;;31.03;10.90;;;;;;;3.02;89.27;98811.16;4967454;28;20236;-52
2023/03/05 07:23:53;;;;;;;27.83;12.23;;;;;;;3.07;88.27;98804.81;4964505;28;20234;-55
2023/03/05 07:26:20;;;;;;;26.47;11.13;;;;;;;3.15;87.81;98799.13;4967511;28;20289;-54
2023/03/05 07:28:47;;;;;;;29.50;11.10;;;;;;;3.21;87.28;98791.00;4964619;28;20823;-55
2023/03/05 07:31:17;;;;;;;31.27;10.87;;;;;;;3.30;86.66;98794.72;4967153;28;20273;-52
2023/03/05 07:33:44;;;;;;;25.17;10.70;;;;;;;3.34;86.46;98798.75;4964273;28;20230;-55
2023/03/05 07:36:13;;;;;;;32.07;10.23;;;;;;;3.39;85.42;98791.53;4967397;28;20624;-55
2023/03/05 07:38:40;;;;;;;31.03;11.70;;;;;;;3.51;85.09;98791.66;4963587;28;20246;-54
2023/03/05 07:41:09;;;;;;;29.77;11.30;;;;;;;3.49;83.97;98793.50;4967383;28;20287;-55
2023/03/05 07:43:36;;;;;;;31.53;11.90;;;;;;;3.53;83.58;98787.22;4963327;28;20617;-52
2023/03/05 07:46:04;;;;;;;31.47;12.10;;;;;;;3.61;82.78;98792.69;4966598;28;20240;-55
2023/03/05 07:48:34;;;;;;;35.13;13.43;;;;;;;3.65;80.16;98791.56;4966129;28;20224;-53
2023/03/05 07:51:01;;;;;;;32.13;13.73;;;;;;;3.73;79.90;98791.03;4964882;28;20247;-57
2023/03/05 07:53:28;;;;;;;45.90;19.90;;;;;;;3.75;78.02;98789.19;4965674;28;20454;-56
2023/03/05 07:55:55;;;;;;;46.00;20.60;;;;;;;3.61;76.62;98795.28;4964459;28;20329;-55
2023/03/05 07:58:21;;;;;;;52.50;18.40;;;;;;;3.76;75.88;98787.44;4967072;28;20240;-55
2023/03/05 08:00:48;;;;;;;46.57;17.87;;;;;;;3.81;75.80;98790.53;4960554;28;20779;-53
2023/03/05 08:03:15;;;;;;;45.65;21.73;;;;;;;3.90;77.24;98789.09;4947782;28;20447;-55
2023/03/05 08:05:43;;;;;;;45.50;18.83;;;;;;;3.93;75.67;98781.13;4952976;28;20230;-57
2023/03/05 08:08:10;;;;;;;54.77;20.77;;;;;;;4.02;77.08;98785.66;4948069;28;20301;-56
2023/03/05 08:10:38;;;;;;;43.57;17.67;;;;;;;4.13;75.25;98788.34;4946091;28;20230;-56
2023/03/05 08:13:05;;;;;;;44.13;19.07;;;;;;;4.11;74.76;98790.22;4958284;28;20288;-55
2023/03/05 08:15:32;;;;;;;49.03;19.40;;;;;;;4.18;73.94;98790.63;4959217;28;20289;-56
2023/03/05 08:18:01;;;;;;;51.37;19.87;;;;;;;4.13;73.60;98792.69;4963313;28;20230;-54
2023/03/05 08:20:28;;;;;;;46.63;18.87;;;;;;;3.98;75.21;98790.22;4966602;28;20581;-53
2023/03/05 08:22:55;;;;;;;45.63;19.07;;;;;;;4.14;74.89;98786.59;4960942;28;20246;-55
2023/03/05 08:25:22;;;;;;;52.63;20.27;;;;;;;4.11;75.49;98784.22;4947307;28;20242;-56
2023/03/05 08:27:49;;;;;;;54.33;20.93;;;;;;;4.16;75.06;98784.75;4948805;28;20230;-56
2023/03/05 08:30:19;;;;;;;52.00;20.27;;;;;;;4.24;74.20;98785.00;4960865;28;20249;-53
2023/03/05 08:32:45;;;;;;;48.10;18.63;;;;;;;4.31;74.37;98780.25;4960326;28;20222;-53
2023/03/05 08:35:12;;;;;;;46.33;20.40;;;;;;;4.12;72.67;98776.34;4948843;28;20238;-56
2023/03/05 08:37:39;;;;;;;55.67;21.40;;;;;;;4.16;73.51;98773.56;4953098;28;20812;-57
2023/03/05 08:40:09;;;;;;;53.77;21.63;;;;;;;4.18;73.59;98766.53;4965919;28;20257;-55
2023/03/05 08:42:35;;;;;;;56.67;22.13;;;;;;;4.30;71.37;98768.25;4963594;28;20296;-57
2023/03/05 08:45:02;;;;;;;52.70;21.77;;;;;;;4.28;70.35;98763.19;4964620;28;20238;-57
2023/03/05 08:47:28;;;;;;;55.93;22.10;;;;;;;4.36;70.62;98765.25;4966265;28;20288;-56
2023/03/05 08:49:56;;;;;;;54.23;22.77;;;;;;;4.41;70.01;98770.09;4963287;28;20581;-53
2023/03/05 08:52:23;;;;;;;55.57;21.33;;;;;;;4.37;70.24;98763.47;4961285;28;20245;-54
2023/03/05 08:54:49;;;;;;;55.83;21.40;;;;;;;4.44;69.53;98756.94;4962345;28;20308;-56
2023/03/05 08:57:17;;;;;;;58.83;22.33;;;;;;;4.36;69.70;98759.25;4964004;28;20226;-57
2023/03/05 08:59:44;;;;;;;54.33;22.00;;;;;;;4.49;71.00;98759.22;4963136;28;20757;-55
2023/03/05 09:02:12;;;;;;;64.03;24.53;;;;;;;4.54;70.09;98763.13;4965680;28;20245;-54
2023/03/05 09:04:38;;;;;;;48.23;21.00;;;;;;;4.53;69.32;98761.47;4963284;28;20229;-54
2023/03/05 09:07:05;;;;;;;53.80;20.50;;;;;;;4.53;69.26;98764.06;4965884;28;20237;-55
2023/03/05 09:09:32;;;;;;;51.77;20.00;;;;;;;4.50;69.85;98760.88;4965883;28;20237;-55
2023/03/05 09:11:59;;;;;;;50.30;19.57;;;;;;;4.42;68.72;98761.41;4963681;28;20233;-55
2023/03/05 09:14:27;;;;;;;45.10;19.37;;;;;;;4.35;71.23;98765.34;4964865;28;20237;-53
2023/03/05 09:16:54;;;;;;;53.30;21.43;;;;;;;4.42;69.11;98761.41;4962840;28;20238;-54
2023/03/05 09:19:21;;;;;;;55.90;22.50;;;;;;;4.31;69.84;98763.91;4953244;28;20290;-56
2023/03/05 09:21:47;;;;;;;57.25;23.58;;;;;;;4.27;70.50;98753.78;4947716;28;20478;-56
2023/03/05 09:24:14;;;;;;;57.40;22.30;;;;;;;4.31;71.28;98756.16;4966900;28;20765;-56
2023/03/05 09:26:41;;;;;;;53.33;22.63;;;;;;;4.46;71.55;98751.69;4966634;28;20292;-54
2023/03/05 09:29:08;;;;;;;52.43;22.70;;;;;;;4.79;71.69;98742.41;4969676;28;20577;-56
2023/03/05 09:31:36;;;;;;;56.80;22.23;;;;;;;4.95;69.93;98742.16;4967466;28;20241;-54
2023/03/05 09:34:02;;;;;;;60.33;23.70;;;;;;;5.29;67.89;98734.50;4969026;28;20244;-56
2023/03/05 09:36:30;;;;;;;52.20;20.93;;;;;;;5.46;67.24;98741.81;4969697;28;20353;-54
2023/03/05 09:38:57;;;;;;;56.53;22.07;;;;;;;5.76;63.59;98734.44;4966686;28;20229;-54
2023/03/05 09:41:33;;;;;;;50.27;21.53;;;;;;;5.61;63.80;98736.41;4970439;28;20233;-53
2023/03/05 09:44:15;;;;;;;51.87;21.87;;;;;;;5.73;63.73;98732.09;4968658;28;20288;-56
2023/03/05 09:46:52;;;;;;;56.47;21.43;;;;;;;5.90;64.08;98733.38;4966621;28;20285;-56
2023/03/05 09:49:30;;;;;;;50.13;20.67;;;;;;;6.13;63.03;98735.97;4962879;28;20236;-55
2023/03/05 09:52:06;;;;;;;57.43;21.70;;;;;;;6.12;62.46;98736.91;4965431;28;20233;-56
2023/03/05 09:54:38;;;;;;;57.23;21.93;;;;;;;6.06;62.84;98730.44;4969198;28;20291;-53
2023/03/05 09:57:12;;;;;;;56.47;22.53;;;;;;;5.94;63.40;98728.75;4966698;28;20697;-56
2023/03/05 09:59:46;;;;;;;52.23;23.23;;;;;;;5.34;64.66;98728.97;4966499;28;20759;-56
2023/03/05 10:02:19;;;;;;;57.03;20.27;;;;;;;5.58;64.65;98732.31;4962260;28;20238;-57
2023/03/05 10:04:51;;;;;;;50.97;20.63;;;;;;;5.88;64.80;98728.28;4946692;28;20226;-56
2023/03/05 10:07:22;;;;;;;56.23;21.23;;;;;;;5.88;63.01;98735.25;4950359;28;20234;-57
2023/03/05 10:09:55;;;;;;;49.27;20.87;;;;;;;5.65;65.08;98726.66;4948504;28;20238;-56
2023/03/05 10:12:27;;;;;;;53.17;22.13;;;;;;;6.05;63.97;98727.03;4955850;28;20230;-56
2023/03/05 10:14:56;;;;;;;54.80;20.23;;;;;;;5.85;63.38;98722.53;4946486;28;20235;-59
2023/03/05 10:17:45;;;;;;;50.73;20.90;;;;;;;5.49;65.58;98725.22;4949704;28;20304;-53
2023/03/05 10:20:30;;;;;;;53.40;21.10;;;;;;;6.17;63.43;98714.06;4951172;28;20238;-53
2023/03/05 10:23:05;;;;;;;57.63;26.45;;;;;;;5.89;64.83;98716.16;4964028;28;20921;-55
2023/03/05 10:25:52;;;;;;;53.90;23.57;;;;;;;5.90;64.50;98716.03;4968595;28;20241;-57
2023/03/05 10:28:25;;;;;;;56.07;23.20;;;;;;;5.52;66.00;98716.38;4966246;28;20230;-57
2023/03/05 10:31:07;;;;;;;56.57;24.00;;;;;;;6.08;64.85;98719.97;4965246;28;20237;-57
2023/03/05 10:33:44;;;;;;;58.20;22.43;;;;;;;6.30;64.77;98713.91;4968583;28;20237;-55
2023/03/05 10:36:30;;;;;;;61.90;23.23;;;;;;;6.41;63.79;98713.03;4964440;28;20256;-57
2023/03/05 10:39:18;;;;;;;58.07;23.23;;;;;;;6.46;63.80;98705.72;4963882;28;20236;-57
2023/03/05 10:41:55;;;;;;;55.03;22.17;;;;;;;6.24;64.20;98710.03;4963555;28;20248;-57
2023/03/05 10:44:31;;;;;;;55.37;22.97;;;;;;;6.57;63.48;98707.47;4967765;28;20315;-57
2023/03/05 10:47:01;;;;;;;58.00;23.03;;;;;;;6.31;63.62;98710.38;4965585;28;20632;-57
2023/03/05 10:49:32;;;;;;;51.30;21.00;;;;;;;6.14;65.04;98703.94;4967610;28;20225;-56
2023/03/05 10:52:05;;;;;;;54.20;22.47;;;;;;;6.14;66.58;98703.94;4963639;28;20686;-57
2023/03/05 10:54:34;;;;;;;51.67;21.70;;;;;;;6.22;65.61;98698.13;4968032;28;20221;-56
2023/03/05 10:57:13;;;;;;;56.90;20.73;;;;;;;6.26;64.12;98687.41;4965115;28;20240;-58
2023/03/05 10:59:43;;;;;;;53.07;20.87;;;;;;;6.34;65.16;98691.97;4964690;28;20213;-56
2023/03/05 11:02:10;;;;;;;45.13;20.90;;;;;;;6.28;64.34;98685.53;4967887;28;20234;-58
2023/03/05 11:04:43;;;;;;;49.93;21.40;;;;;;;6.27;64.04;98689.06;4964382;28;20226;-55
2023/03/05 11:07:35;;;;;;;52.43;20.93;;;;;;;6.24;63.58;98678.09;4967921;28;21058;-55
2023/03/05 11:10:05;;;;;;;47.37;19.00;;;;;;;6.24;65.02;98678.09;4965076;28;20712;-56
2023/03/05 11:12:33;;;;;;;58.77;23.80;;;;;;;6.58;65.22;98672.81;4967937;28;20300;-56
2023/03/05 11:15:20;;;;;;;59.73;23.13;;;;;;;6.45;62.87;98660.00;4953680;28;20234;-55
2023/03/05 11:18:06;;;;;;;65.30;26.37;;;;;;;6.64;62.98;98661.94;4958415;28;20290;-52
2023/03/05 11:20:36;;;;;;;55.73;25.20;;;;;;;6.58;63.34;98665.84;4963983;28;20269;-53
2023/03/05 11:23:09;;;;;;;397.20;116.57;;;;;;;6.38;64.01;98661.44;4964406;28;20234;-54
2023/03/05 11:25:54;;;;;;;54.23;23.97;;;;;;;6.65;63.62;98654.03;4964794;28;20238;-55
2023/03/05 11:28:24;;;;;;;61.10;23.50;;;;;;;6.46;64.54;98651.28;4965816;28;20697;-56
2023/03/05 11:31:00;;;;;;;58.67;25.57;;;;;;;6.38;64.91;98651.06;4964102;28;20242;-54
2023/03/05 11:33:27;;;;;;;49.30;21.63;;;;;;;6.66;64.61;98649.66;4965817;28;20226;-57